createdAt,value
2019-05-19T00:00:22.815Z,15.83
2019-05-19T00:02:52.432Z,16.80
2019-05-19T00:05:21.985Z,15.85
2019-05-19T00:07:52.123Z,15.70
2019-05-19T00:10:22.037Z,16.65
2019-05-19T00:12:51.550Z,16.07
2019-05-19T00:15:22.665Z,16.48
2019-05-19T00:17:52.183Z,15.13
2019-05-19T00:20:21.756Z,15.90
2019-05-19T00:22:52.191Z,17.10
2019-05-19T00:25:22.375Z,16.17
2019-05-19T00:27:51.814Z,16.70
2019-05-19T00:30:22.251Z,17.42
2019-05-19T00:32:51.838Z,17.65
2019-05-19T00:35:21.798Z,17.48
2019-05-19T00:37:51.547Z,18.07
2019-05-19T00:40:21.038Z,16.65
2019-05-19T00:42:50.551Z,17.10
2019-05-19T00:45:20.158Z,17.45
2019-05-19T00:47:49.720Z,16.12
2019-05-19T00:50:19.914Z,16.40
2019-05-19T00:52:49.431Z,17.73
2019-05-19T00:55:18.920Z,16.77
2019-05-19T00:57:50.600Z,17.57
2019-05-19T01:00:21.521Z,16.75
2019-05-19T01:02:51.400Z,17.57
2019-05-19T01:05:21.028Z,17.00
2019-05-19T01:07:50.486Z,18.32
2019-05-19T01:10:20.500Z,18.25
2019-05-19T01:12:50.013Z,18.40
2019-05-19T01:15:20.250Z,18.27
2019-05-19T01:17:49.819Z,18.67
2019-05-19T01:20:19.610Z,18.00
2019-05-19T01:22:49.176Z,18.42
2019-05-19T01:25:18.866Z,18.30
2019-05-19T01:27:48.785Z,17.98
2019-05-19T01:30:18.408Z,18.52
2019-05-19T01:32:47.890Z,17.90
2019-05-19T01:35:17.382Z,17.25
2019-05-19T01:37:50.808Z,18.62
2019-05-19T01:40:20.764Z,17.87
2019-05-19T01:42:50.270Z,18.15
2019-05-19T01:45:20.761Z,18.35
2019-05-19T01:47:50.258Z,18.12
2019-05-19T01:50:19.810Z,19.02
2019-05-19T01:52:49.635Z,19.60
2019-05-19T01:55:19.550Z,19.77
2019-05-19T01:57:49.365Z,19.65
2019-05-19T02:00:19.218Z,20.23
2019-05-19T02:02:48.657Z,19.50
2019-05-19T02:05:18.499Z,19.23
2019-05-19T02:07:48.028Z,19.10
2019-05-19T02:10:17.647Z,18.42
2019-05-19T02:12:47.099Z,19.12
2019-05-19T02:15:16.835Z,17.82
2019-05-19T02:17:46.353Z,18.73
2019-05-19T02:20:16.383Z,17.15
2019-05-19T02:22:45.889Z,17.57
2019-05-19T02:25:16.980Z,17.62
2019-05-19T02:27:46.500Z,18.32
2019-05-19T02:30:16.130Z,17.42
2019-05-19T02:32:45.593Z,17.07
2019-05-19T02:35:15.243Z,17.23
2019-05-19T02:37:44.719Z,16.60
2019-05-19T02:40:14.865Z,17.70
2019-05-19T02:42:46.852Z,17.35
2019-05-19T02:45:16.703Z,18.10
2019-05-19T02:47:48.948Z,18.70
2019-05-19T02:50:20.061Z,19.45
2019-05-19T02:52:51.810Z,18.80
2019-05-19T02:55:22.035Z,18.55
2019-05-19T02:57:53.216Z,19.05
2019-05-19T03:00:37.336Z,19.00
2019-05-19T03:03:07.854Z,17.80
2019-05-19T03:05:39.428Z,16.97
2019-05-19T03:08:08.952Z,18.90
2019-05-19T03:10:38.439Z,18.60
2019-05-19T03:13:07.961Z,18.07
2019-05-19T03:15:38.431Z,18.95
2019-05-19T03:18:07.896Z,19.30
2019-05-19T03:20:37.406Z,18.35
2019-05-19T03:23:07.196Z,18.67
2019-05-19T03:25:37.011Z,17.90
2019-05-19T03:28:06.543Z,18.98
2019-05-19T03:30:53.837Z,18.98
2019-05-19T03:33:24.948Z,19.85
2019-05-19T03:35:54.448Z,20.08
2019-05-19T03:38:23.898Z,19.60
2019-05-19T03:40:53.405Z,19.37
2019-05-19T03:43:22.905Z,19.62
2019-05-19T03:45:52.387Z,19.55
2019-05-19T03:48:21.873Z,19.42
2019-05-19T03:50:51.335Z,19.82
2019-05-19T03:53:20.843Z,19.32
2019-05-19T03:55:50.345Z,19.10
2019-05-19T03:58:20.024Z,19.42
2019-05-19T04:00:49.523Z,19.82
2019-05-19T04:03:19.033Z,19.70
2019-05-19T04:05:49.689Z,19.00
2019-05-19T04:08:19.163Z,19.75
2019-05-19T04:10:48.625Z,18.85
2019-05-19T04:13:18.184Z,18.87
2019-05-19T04:15:48.132Z,19.25
2019-05-19T04:18:17.763Z,19.60
2019-05-19T04:20:47.246Z,18.02
2019-05-19T04:23:17.063Z,19.17
2019-05-19T04:25:46.559Z,19.23
2019-05-19T04:28:16.066Z,18.60
2019-05-19T04:30:45.535Z,18.73
2019-05-19T04:33:15.111Z,18.92
2019-05-19T04:35:44.604Z,18.00
2019-05-19T04:38:14.413Z,18.42
2019-05-19T04:40:44.168Z,17.62
2019-05-19T04:43:13.626Z,18.48
2019-05-19T04:45:43.133Z,17.10
2019-05-19T04:48:12.638Z,17.48
2019-05-19T04:50:42.145Z,17.45
2019-05-19T04:53:11.750Z,16.23
2019-05-19T04:55:41.236Z,16.95
2019-05-19T04:58:10.742Z,15.95
2019-05-19T05:00:41.306Z,16.15
2019-05-19T05:03:11.894Z,16.25
2019-05-19T05:05:41.356Z,16.23
2019-05-19T05:08:27.775Z,16.87
2019-05-19T05:10:42.110Z,16.50
2019-05-19T05:13:12.021Z,15.88
2019-05-19T05:15:41.480Z,17.40
2019-05-19T05:18:11.032Z,17.65
2019-05-19T05:20:40.537Z,16.30
2019-05-19T05:23:10.040Z,16.40
2019-05-19T05:25:39.545Z,15.93
2019-05-19T05:28:09.007Z,16.37
2019-05-19T05:30:38.509Z,15.58
2019-05-19T05:33:08.014Z,15.20
2019-05-19T05:35:37.481Z,15.85
2019-05-19T05:38:06.968Z,15.98
2019-05-19T05:40:36.715Z,14.53
2019-05-19T05:43:06.235Z,14.03
2019-05-19T05:45:36.215Z,12.60
2019-05-19T05:48:05.704Z,13.08
2019-05-19T05:50:35.552Z,12.65
2019-05-19T05:53:05.063Z,12.93
2019-05-19T05:55:34.900Z,12.33
2019-05-19T05:58:04.530Z,12.10
2019-05-19T06:00:34.013Z,11.40
2019-05-19T06:03:03.559Z,10.63
2019-05-19T06:05:33.032Z,10.45
2019-05-19T06:08:02.657Z,11.10
2019-05-19T06:10:32.120Z,10.88
2019-05-19T06:13:01.709Z,10.35
2019-05-19T06:15:31.227Z,10.35
2019-05-19T06:18:00.760Z,10.53
2019-05-19T06:20:31.591Z,9.73
2019-05-19T06:23:01.078Z,10.45
2019-05-19T06:25:30.710Z,10.20
2019-05-19T06:28:00.206Z,9.33
2019-05-19T06:30:30.085Z,9.35
2019-05-19T06:33:01.848Z,9.30
2019-05-19T06:35:31.320Z,8.98
2019-05-19T06:38:00.761Z,8.83
2019-05-19T06:40:30.272Z,8.53
2019-05-19T06:42:59.737Z,7.97
2019-05-19T06:45:29.245Z,8.33
2019-05-19T06:47:58.758Z,8.20
2019-05-19T06:50:28.367Z,7.37
2019-05-19T06:53:12.864Z,8.25
2019-05-19T06:55:29.176Z,7.25
2019-05-19T06:57:58.729Z,7.95
2019-05-19T07:00:28.274Z,7.50
2019-05-19T07:02:59.205Z,7.42
2019-05-19T07:05:28.687Z,7.35
2019-05-19T07:07:58.138Z,7.33
2019-05-19T07:10:28.043Z,7.87
2019-05-19T07:12:57.612Z,8.00
2019-05-19T07:15:27.116Z,7.80
2019-05-19T07:17:56.563Z,8.63
2019-05-19T07:20:26.107Z,8.78
2019-05-19T07:22:55.878Z,8.40
2019-05-19T07:25:25.544Z,9.30
2019-05-19T07:27:55.027Z,8.18
2019-05-19T07:30:24.778Z,8.65
2019-05-19T07:32:54.295Z,8.85
2019-05-19T07:35:24.120Z,8.78
2019-05-19T07:37:53.575Z,9.45
2019-05-19T07:40:23.107Z,9.58
2019-05-19T07:42:52.723Z,9.20
2019-05-19T07:45:22.869Z,9.73
2019-05-19T07:47:52.538Z,9.80
2019-05-19T07:50:22.391Z,9.63
2019-05-19T07:52:52.216Z,10.18
2019-05-19T07:55:21.805Z,10.03
2019-05-19T07:57:51.498Z,10.53
2019-05-19T08:00:21.122Z,10.78
2019-05-19T08:02:50.583Z,10.90
2019-05-19T08:05:20.246Z,10.65
2019-05-19T08:07:49.742Z,10.78
2019-05-19T08:10:19.322Z,11.30
2019-05-19T08:12:48.800Z,11.15
2019-05-19T08:15:19.096Z,10.98
2019-05-19T08:17:48.674Z,11.08
2019-05-19T08:20:18.268Z,11.45
2019-05-19T08:22:51.056Z,10.93
2019-05-19T08:25:19.405Z,12.18
2019-05-19T08:27:49.039Z,12.95
2019-05-19T08:30:18.842Z,12.60
2019-05-19T08:32:48.349Z,12.10
2019-05-19T08:35:17.972Z,12.90
2019-05-19T08:37:47.833Z,13.05
2019-05-19T08:40:17.492Z,13.95
2019-05-19T08:42:46.987Z,13.00
2019-05-19T08:45:16.614Z,13.30
2019-05-19T08:47:46.470Z,12.73
2019-05-19T08:50:16.191Z,13.15
2019-05-19T08:52:45.739Z,13.60
2019-05-19T08:55:15.751Z,14.00
2019-05-19T08:57:45.205Z,14.15
2019-05-19T09:00:15.592Z,15.25
2019-05-19T09:02:45.265Z,16.48
2019-05-19T09:05:14.933Z,15.85
2019-05-19T09:07:44.456Z,15.68
2019-05-19T09:10:14.151Z,15.45
2019-05-19T09:12:43.652Z,16.00
2019-05-19T09:15:13.489Z,13.48
2019-05-19T09:17:43.165Z,12.45
2019-05-19T09:20:13.354Z,12.00
2019-05-19T09:22:42.864Z,12.07
2019-05-19T09:25:12.550Z,11.97
2019-05-19T09:27:42.480Z,11.70
2019-05-19T09:30:12.499Z,12.07
2019-05-19T09:32:42.399Z,11.78
2019-05-19T09:35:12.936Z,11.28
2019-05-19T09:37:42.509Z,10.68
2019-05-19T09:40:13.013Z,10.23
2019-05-19T09:42:42.685Z,10.80
2019-05-19T09:45:14.259Z,10.55
2019-05-19T09:47:43.934Z,10.13
2019-05-19T09:50:14.086Z,9.55
2019-05-19T09:52:44.496Z,9.40
2019-05-19T09:55:16.151Z,8.70
2019-05-19T09:57:45.802Z,8.33
2019-05-19T10:00:15.944Z,8.43
2019-05-19T10:02:46.116Z,8.60
2019-05-19T10:05:16.360Z,9.33
2019-05-19T10:07:46.355Z,9.28
2019-05-19T10:10:18.132Z,8.93
2019-05-19T10:12:47.905Z,9.28
2019-05-19T10:15:17.630Z,10.13
2019-05-19T10:17:47.546Z,9.55
2019-05-19T10:20:17.831Z,9.40
2019-05-19T10:22:47.672Z,9.58
2019-05-19T10:25:22.657Z,10.03
2019-05-19T10:27:50.299Z,9.88
2019-05-19T10:30:20.243Z,9.45
2019-05-19T10:32:49.995Z,10.32
2019-05-19T10:35:19.590Z,10.03
2019-05-19T10:37:49.274Z,10.70
2019-05-19T10:40:18.923Z,10.58
2019-05-19T10:42:48.605Z,10.30
2019-05-19T10:45:18.734Z,10.55
2019-05-19T10:47:48.274Z,10.00
2019-05-19T10:50:18.321Z,10.55
2019-05-19T10:52:48.305Z,10.23
2019-05-19T10:55:18.853Z,10.05
2019-05-19T10:57:48.327Z,10.68
2019-05-19T11:00:18.108Z,10.05
2019-05-19T11:02:47.667Z,10.43
2019-05-19T11:05:19.555Z,9.75
2019-05-19T11:07:49.358Z,9.73
2019-05-19T11:10:19.223Z,9.50
2019-05-19T11:12:48.730Z,9.55
2019-05-19T11:15:18.569Z,9.93
2019-05-19T11:17:48.077Z,9.13
2019-05-19T11:20:17.809Z,9.08
2019-05-19T11:22:47.440Z,9.28
2019-05-19T11:25:32.676Z,9.68
2019-05-19T11:27:50.759Z,9.33
2019-05-19T11:30:21.326Z,9.30
2019-05-19T11:32:51.196Z,9.63
2019-05-19T11:35:20.810Z,10.08
2019-05-19T11:37:50.430Z,9.95
2019-05-19T11:40:19.921Z,9.93
2019-05-19T11:42:50.444Z,9.45
2019-05-19T11:45:20.039Z,9.88
2019-05-19T11:47:49.573Z,9.75
2019-05-19T11:50:19.462Z,10.08
2019-05-19T11:52:49.030Z,9.50
2019-05-19T11:55:18.923Z,10.08
2019-05-19T11:57:48.832Z,9.33
2019-05-19T12:00:18.446Z,10.30
2019-05-19T12:02:48.835Z,9.65
2019-05-19T12:05:19.175Z,9.73
2019-05-19T12:07:48.703Z,9.05
2019-05-19T12:10:18.241Z,8.58
2019-05-19T12:12:47.748Z,8.85
2019-05-19T12:15:17.982Z,9.05
2019-05-19T12:17:47.938Z,9.00
2019-05-19T12:20:17.500Z,8.93
2019-05-19T12:22:47.436Z,8.78
2019-05-19T12:25:17.130Z,8.78
2019-05-19T12:27:47.092Z,8.70
2019-05-19T12:30:21.514Z,8.05
2019-05-19T12:32:51.096Z,7.80
2019-05-19T12:35:21.027Z,7.97
2019-05-19T12:37:50.596Z,8.00
2019-05-19T12:40:22.618Z,7.65
2019-05-19T12:42:51.392Z,7.15
2019-05-19T12:45:21.629Z,7.42
2019-05-19T12:47:51.593Z,8.20
2019-05-19T12:50:21.364Z,7.10
2019-05-19T12:52:50.962Z,8.05
2019-05-19T12:55:24.077Z,7.50
2019-05-19T12:57:53.850Z,7.42
2019-05-19T13:00:23.526Z,7.65
2019-05-19T13:02:53.181Z,7.55
2019-05-19T13:05:22.724Z,7.80
2019-05-19T13:07:52.267Z,6.78
2019-05-19T13:10:21.721Z,6.95
2019-05-19T13:12:51.414Z,6.75
2019-05-19T13:15:21.114Z,6.62
2019-05-19T13:17:50.687Z,6.45
2019-05-19T13:20:20.296Z,6.97
2019-05-19T13:22:50.153Z,7.58
2019-05-19T13:25:19.788Z,7.37
2019-05-19T13:27:49.341Z,7.72
2019-05-19T13:30:19.193Z,6.10
2019-05-19T13:32:48.771Z,5.53
2019-05-19T13:35:18.359Z,5.60
2019-05-19T13:37:48.240Z,5.85
2019-05-19T13:40:18.416Z,5.90
2019-05-19T13:42:48.303Z,6.30
2019-05-19T13:45:18.075Z,4.97
2019-05-19T13:47:47.626Z,5.40
2019-05-19T13:50:17.368Z,6.35
2019-05-19T13:52:46.869Z,5.62
2019-05-19T13:55:16.595Z,5.65
2019-05-19T13:57:46.551Z,6.15
2019-05-19T14:00:16.077Z,6.47
2019-05-19T14:02:45.658Z,6.50
2019-05-19T14:05:15.163Z,6.28
2019-05-19T14:07:47.310Z,6.67
2019-05-19T14:10:16.940Z,6.83
2019-05-19T14:12:47.366Z,7.10
2019-05-19T14:15:16.947Z,7.08
2019-05-19T14:17:46.583Z,6.72
2019-05-19T14:20:16.500Z,7.10
2019-05-19T14:22:47.206Z,7.30
2019-05-19T14:25:16.649Z,6.62
2019-05-19T14:27:46.666Z,7.20
2019-05-19T14:30:16.468Z,7.03
2019-05-19T14:32:46.315Z,6.70
2019-05-19T14:35:15.885Z,7.33
2019-05-19T14:37:45.565Z,7.10
2019-05-19T14:40:16.015Z,7.28
2019-05-19T14:42:56.329Z,6.80
2019-05-19T14:45:25.892Z,7.05
2019-05-19T14:47:55.878Z,6.40
2019-05-19T14:50:25.413Z,5.87
2019-05-19T14:52:56.925Z,6.33
2019-05-19T14:55:27.321Z,6.30
2019-05-19T14:57:56.855Z,5.83
2019-05-19T15:00:27.002Z,6.33
2019-05-19T15:02:56.978Z,5.87
2019-05-19T15:05:26.699Z,6.60
2019-05-19T15:07:56.335Z,6.08
2019-05-19T15:10:26.308Z,6.12
2019-05-19T15:12:56.096Z,6.03
2019-05-19T15:15:25.668Z,6.17
2019-05-19T15:17:55.238Z,5.55
2019-05-19T15:20:24.975Z,6.20
2019-05-19T15:22:54.508Z,6.95
2019-05-19T15:25:24.059Z,6.80
2019-05-19T15:28:00.185Z,6.78
2019-05-19T15:30:25.616Z,6.62
2019-05-19T15:32:56.525Z,6.65
2019-05-19T15:35:26.165Z,6.80
2019-05-19T15:37:57.348Z,6.62
2019-05-19T15:40:27.655Z,6.95
2019-05-19T15:42:57.445Z,6.90
2019-05-19T15:45:27.242Z,7.03
2019-05-19T15:47:57.406Z,6.40
2019-05-19T15:50:27.321Z,6.62
2019-05-19T15:52:58.797Z,7.35
2019-05-19T15:55:28.425Z,7.25
2019-05-19T15:57:57.967Z,6.80
2019-05-19T16:00:27.406Z,6.92
2019-05-19T16:02:57.019Z,7.35
2019-05-19T16:05:26.769Z,7.30
2019-05-19T16:07:56.718Z,7.30
2019-05-19T16:10:26.269Z,7.53
2019-05-19T16:12:55.792Z,7.22
2019-05-19T16:15:25.416Z,6.83
2019-05-19T16:17:54.925Z,6.67
2019-05-19T16:20:24.417Z,6.42
2019-05-19T16:22:53.978Z,7.00
2019-05-19T16:25:23.455Z,8.28
2019-05-19T16:27:52.914Z,7.22
2019-05-19T16:30:22.612Z,6.65
2019-05-19T16:32:52.129Z,6.80
2019-05-19T16:35:22.697Z,6.87
2019-05-19T16:37:52.179Z,6.97
2019-05-19T16:40:21.819Z,6.92
2019-05-19T16:42:51.559Z,6.33
2019-05-19T16:45:21.763Z,6.47
2019-05-19T16:47:51.253Z,6.47
2019-05-19T16:50:21.004Z,6.40
2019-05-19T16:52:51.105Z,5.85
2019-05-19T16:55:25.427Z,5.60
2019-05-19T16:57:55.339Z,5.70
2019-05-19T17:00:26.913Z,5.25
2019-05-19T17:02:56.677Z,5.53
2019-05-19T17:05:26.169Z,5.53
2019-05-19T17:07:55.653Z,5.35
2019-05-19T17:10:25.278Z,5.35
2019-05-19T17:12:54.916Z,5.70
2019-05-19T17:15:24.603Z,6.10
2019-05-19T17:17:54.060Z,5.58
2019-05-19T17:20:23.729Z,5.92
2019-05-19T17:22:53.279Z,6.00
2019-05-19T17:25:23.186Z,7.20
2019-05-19T17:27:52.636Z,6.25
2019-05-19T17:30:22.288Z,10.60
2019-05-19T17:32:51.726Z,6.10
2019-05-19T17:35:21.400Z,6.30
2019-05-19T17:37:51.240Z,6.78
2019-05-19T17:40:20.886Z,6.85
2019-05-19T17:42:50.776Z,6.70
2019-05-19T17:45:20.368Z,7.37
2019-05-19T17:47:53.498Z,8.15
2019-05-19T17:50:36.115Z,7.40
2019-05-19T17:53:06.203Z,7.90
2019-05-19T17:55:35.902Z,6.58
2019-05-19T17:58:05.982Z,7.20
2019-05-19T18:00:38.708Z,6.62
2019-05-19T18:03:08.942Z,7.22
2019-05-19T18:05:38.706Z,7.15
2019-05-19T18:08:08.238Z,7.00
2019-05-19T18:10:38.095Z,7.37
2019-05-19T18:13:07.714Z,8.40
2019-05-19T18:15:37.963Z,7.97
2019-05-19T18:18:07.565Z,8.63
2019-05-19T18:20:38.158Z,8.98
2019-05-19T18:23:07.705Z,10.55
2019-05-19T18:25:37.210Z,8.88
2019-05-19T18:28:06.793Z,10.18
2019-05-19T18:30:36.572Z,7.60
2019-05-19T18:33:06.137Z,9.38
2019-05-19T18:35:35.588Z,16.45
2019-05-19T18:38:05.645Z,14.30
2019-05-19T18:40:35.525Z,11.90
2019-05-19T18:43:05.642Z,9.68
2019-05-19T18:45:35.611Z,10.50
2019-05-19T18:48:05.402Z,15.13
2019-05-19T18:50:34.883Z,10.70
2019-05-19T18:53:04.797Z,9.18
2019-05-19T18:55:34.266Z,10.75
2019-05-19T18:58:04.189Z,9.58
2019-05-19T19:00:36.489Z,10.38
2019-05-19T19:03:06.689Z,8.63
2019-05-19T19:05:36.331Z,11.43
2019-05-19T19:08:06.101Z,9.75
2019-05-19T19:10:35.982Z,8.10
2019-05-19T19:13:05.621Z,9.65
2019-05-19T19:15:35.800Z,10.15
2019-05-19T19:18:05.364Z,9.20
2019-05-19T19:20:35.669Z,8.73
2019-05-19T19:23:05.413Z,10.00
2019-05-19T19:25:34.998Z,8.98
2019-05-19T19:28:04.587Z,9.15
2019-05-19T19:30:34.132Z,9.05
2019-05-19T19:33:03.578Z,8.45
2019-05-19T19:35:39.276Z,8.50
2019-05-19T19:38:04.274Z,8.53
2019-05-19T19:40:33.812Z,8.60
2019-05-19T19:43:04.036Z,8.60
2019-05-19T19:45:33.503Z,8.60
2019-05-19T19:48:02.952Z,8.50
2019-05-19T19:50:32.861Z,8.38
2019-05-19T19:53:02.334Z,8.43
2019-05-19T19:55:32.192Z,8.03
2019-05-19T19:58:01.786Z,8.65
2019-05-19T20:00:37.597Z,8.08
2019-05-19T20:03:08.279Z,8.50
2019-05-19T20:05:38.309Z,8.43
2019-05-19T20:08:08.188Z,8.83
2019-05-19T20:10:38.030Z,8.40
2019-05-19T20:13:07.824Z,8.60
2019-05-19T20:15:38.922Z,8.50
2019-05-19T20:18:08.504Z,8.25
2019-05-19T20:20:38.114Z,7.83
2019-05-19T20:23:07.770Z,7.90
2019-05-19T20:25:37.625Z,8.00
2019-05-19T20:28:07.285Z,8.65
2019-05-19T20:30:37.178Z,8.38
2019-05-19T20:33:06.788Z,8.23
2019-05-19T20:35:36.262Z,8.05
2019-05-19T20:38:05.808Z,8.35
2019-05-19T20:40:35.267Z,7.60
2019-05-19T20:43:05.024Z,9.05
2019-05-19T20:45:35.630Z,8.98
2019-05-19T20:48:05.380Z,8.40
2019-05-19T20:50:34.854Z,8.73
2019-05-19T20:53:04.666Z,8.93
2019-05-19T20:55:34.850Z,8.45
2019-05-19T20:58:04.409Z,8.48
2019-05-19T21:00:33.886Z,8.98
2019-05-19T21:03:04.330Z,9.45
2019-05-19T21:05:33.788Z,9.48
2019-05-19T21:08:03.660Z,8.80
2019-05-19T21:10:35.123Z,9.75
2019-05-19T21:13:04.575Z,9.93
2019-05-19T21:15:34.192Z,9.95
2019-05-19T21:18:03.646Z,9.93
2019-05-19T21:20:33.275Z,10.38
2019-05-19T21:23:02.738Z,10.53
2019-05-19T21:25:32.204Z,10.25
2019-05-19T21:28:02.168Z,10.90
2019-05-19T21:30:31.702Z,10.63
2019-05-19T21:33:01.193Z,10.30
2019-05-19T21:35:30.994Z,11.20
2019-05-19T21:38:00.503Z,10.32
2019-05-19T21:40:30.470Z,10.58
2019-05-19T21:43:00.004Z,11.08
2019-05-19T21:45:29.493Z,10.85
2019-05-19T21:47:59.077Z,11.50
2019-05-19T21:50:28.630Z,10.82
2019-05-19T21:52:58.184Z,10.63
2019-05-19T21:55:27.692Z,11.20
2019-05-19T21:57:57.460Z,11.80
2019-05-19T22:00:28.778Z,11.05
2019-05-19T22:02:58.690Z,11.25
2019-05-19T22:05:28.559Z,11.20
2019-05-19T22:08:05.536Z,11.33
2019-05-19T22:10:35.137Z,11.45
2019-05-19T22:13:04.705Z,11.48
2019-05-19T22:15:34.212Z,11.63
2019-05-19T22:18:04.076Z,10.90
2019-05-19T22:20:33.570Z,11.78
2019-05-19T22:23:03.047Z,11.43
2019-05-19T22:25:32.553Z,12.07
2019-05-19T22:28:02.618Z,11.22
2019-05-19T22:30:32.120Z,12.13
2019-05-19T22:33:01.738Z,11.73
2019-05-19T22:35:31.641Z,12.13
2019-05-19T22:38:01.114Z,11.30
2019-05-19T22:40:31.121Z,11.93
2019-05-19T22:43:00.888Z,11.63
2019-05-19T22:45:30.479Z,11.30
2019-05-19T22:48:00.300Z,11.93
2019-05-19T22:50:30.109Z,11.38
2019-05-19T22:52:59.618Z,11.20
2019-05-19T22:55:29.125Z,11.00
2019-05-19T22:57:58.641Z,11.20
2019-05-19T23:00:28.335Z,11.50
2019-05-19T23:02:57.827Z,11.75
2019-05-19T23:05:27.307Z,12.15
2019-05-19T23:07:56.975Z,12.18
2019-05-19T23:10:26.886Z,12.23
2019-05-19T23:12:56.392Z,11.25
2019-05-19T23:15:25.843Z,11.60
2019-05-19T23:17:55.346Z,11.43
2019-05-19T23:20:24.882Z,11.53
2019-05-19T23:22:54.332Z,12.18
2019-05-19T23:25:23.835Z,11.30
2019-05-19T23:27:53.297Z,11.93
2019-05-19T23:30:23.023Z,11.85
2019-05-19T23:32:52.556Z,11.70
2019-05-19T23:35:22.509Z,11.75
2019-05-19T23:37:53.015Z,11.60
2019-05-19T23:40:22.465Z,12.60
2019-05-19T23:42:51.980Z,12.20
2019-05-19T23:45:21.820Z,12.30
2019-05-19T23:47:51.321Z,11.97
2019-05-19T23:50:20.851Z,11.80
2019-05-19T23:52:50.357Z,11.85
2019-05-19T23:55:19.813Z,12.00
2019-05-19T23:57:49.328Z,11.48
